sensor_id;sensor_type;location;lat;lon;timestamp;P1;durP1;ratioP1;P2;durP2;ratioP2
4311;SDS011;2169;49.086;9.284;2023-07-28T00:02:00;2.97;;;2.67;;
4311;SDS011;2169;49.086;9.284;2023-07-28T00:04:27;3.57;;;1.93;;
4311;SDS011;2169;49.086;9.284;2023-07-28T00:06:53;2.43;;;2.23;;
4311;SDS011;2169;49.086;9.284;2023-07-28T00:09:20;1.83;;;1.63;;
4311;SDS011;2169;49.086;9.284;2023-07-28T00:11:49;2.50;;;2.30;;
4311;SDS011;2169;49.086;9.284;2023-07-28T00:14:16;2.63;;;2.43;;
4311;SDS011;2169;49.086;9.284;2023-07-28T00:16:42;7.00;;;2.17;;
4311;SDS011;2169;49.086;9.284;2023-07-28T00:19:09;2.00;;;1.83;;
4311;SDS011;2169;49.086;9.284;2023-07-28T00:21:37;1.90;;;1.80;;
4311;SDS011;2169;49.086;9.284;2023-07-28T00:24:04;1.37;;;1.30;;
4311;SDS011;2169;49.086;9.284;2023-07-28T00:26:31;2.60;;;2.07;;
4311;SDS011;2169;49.086;9.284;2023-07-28T00:28:59;3.80;;;1.90;;
4311;SDS011;2169;49.086;9.284;2023-07-28T00:31:26;1.63;;;1.53;;
4311;SDS011;2169;49.086;9.284;2023-07-28T00:33:52;4.20;;;2.20;;
4311;SDS011;2169;49.086;9.284;2023-07-28T00:36:19;2.07;;;1.63;;
4311;SDS011;2169;49.086;9.284;2023-07-28T00:38:46;3.53;;;2.83;;
4311;SDS011;2169;49.086;9.284;2023-07-28T00:41:13;1.77;;;1.40;;
4311;SDS011;2169;49.086;9.284;2023-07-28T00:43:39;2.50;;;2.17;;
4311;SDS011;2169;49.086;9.284;2023-07-28T00:46:07;1.80;;;1.70;;
4311;SDS011;2169;49.086;9.284;2023-07-28T00:48:35;1.87;;;1.60;;
4311;SDS011;2169;49.086;9.284;2023-07-28T00:51:02;2.30;;;1.67;;
4311;SDS011;2169;49.086;9.284;2023-07-28T00:53:29;3.03;;;1.70;;
4311;SDS011;2169;49.086;9.284;2023-07-28T00:55:57;5.73;;;1.87;;
4311;SDS011;2169;49.086;9.284;2023-07-28T00:58:23;2.00;;;1.90;;
4311;SDS011;2169;49.086;9.284;2023-07-28T01:00:50;2.00;;;1.90;;
4311;SDS011;2169;49.086;9.284;2023-07-28T01:03:18;1.87;;;1.40;;
4311;SDS011;2169;49.086;9.284;2023-07-28T01:05:48;1.90;;;1.80;;
4311;SDS011;2169;49.086;9.284;2023-07-28T01:08:23;2.93;;;1.87;;
4311;SDS011;2169;49.086;9.284;2023-07-28T01:10:56;2.53;;;2.03;;
4311;SDS011;2169;49.086;9.284;2023-07-28T01:13:22;2.43;;;2.13;;
4311;SDS011;2169;49.086;9.284;2023-07-28T01:15:49;4.13;;;2.40;;
4311;SDS011;2169;49.086;9.284;2023-07-28T01:18:16;3.10;;;1.57;;
4311;SDS011;2169;49.086;9.284;2023-07-28T01:20:44;5.07;;;2.53;;
4311;SDS011;2169;49.086;9.284;2023-07-28T01:23:14;1.93;;;1.83;;
4311;SDS011;2169;49.086;9.284;2023-07-28T01:25:49;5.47;;;1.90;;
4311;SDS011;2169;49.086;9.284;2023-07-28T01:28:23;1.83;;;1.70;;
4311;SDS011;2169;49.086;9.284;2023-07-28T01:30:50;1.23;;;1.23;;
4311;SDS011;2169;49.086;9.284;2023-07-28T01:33:17;3.97;;;1.90;;
4311;SDS011;2169;49.086;9.284;2023-07-28T01:35:43;7.13;;;1.77;;
4311;SDS011;2169;49.086;9.284;2023-07-28T01:38:10;2.77;;;2.50;;
4311;SDS011;2169;49.086;9.284;2023-07-28T01:40:38;1.80;;;1.70;;
4311;SDS011;2169;49.086;9.284;2023-07-28T01:43:04;8.27;;;2.70;;
4311;SDS011;2169;49.086;9.284;2023-07-28T01:45:32;4.07;;;2.07;;
4311;SDS011;2169;49.086;9.284;2023-07-28T01:47:59;12.13;;;2.30;;
4311;SDS011;2169;49.086;9.284;2023-07-28T01:50:26;2.00;;;1.80;;
4311;SDS011;2169;49.086;9.284;2023-07-28T01:52:53;2.03;;;1.93;;
4311;SDS011;2169;49.086;9.284;2023-07-28T01:55:19;1.67;;;1.57;;
4311;SDS011;2169;49.086;9.284;2023-07-28T01:57:50;1.73;;;1.47;;
4311;SDS011;2169;49.086;9.284;2023-07-28T02:00:20;1.90;;;1.63;;
4311;SDS011;2169;49.086;9.284;2023-07-28T02:02:48;2.47;;;2.27;;
4311;SDS011;2169;49.086;9.284;2023-07-28T02:05:15;3.33;;;2.30;;
4311;SDS011;2169;49.086;9.284;2023-07-28T02:07:42;1.60;;;1.50;;
4311;SDS011;2169;49.086;9.284;2023-07-28T02:10:09;2.23;;;2.03;;
4311;SDS011;2169;49.086;9.284;2023-07-28T02:12:36;4.33;;;2.40;;
4311;SDS011;2169;49.086;9.284;2023-07-28T02:15:03;10.50;;;2.37;;
4311;SDS011;2169;49.086;9.284;2023-07-28T02:17:30;3.53;;;2.07;;
4311;SDS011;2169;49.086;9.284;2023-07-28T02:19:59;2.50;;;1.90;;
4311;SDS011;2169;49.086;9.284;2023-07-28T02:22:26;4.30;;;1.50;;
4311;SDS011;2169;49.086;9.284;2023-07-28T02:24:53;3.87;;;1.93;;
4311;SDS011;2169;49.086;9.284;2023-07-28T02:27:19;4.10;;;2.00;;
4311;SDS011;2169;49.086;9.284;2023-07-28T02:29:46;12.00;;;2.50;;
4311;SDS011;2169;49.086;9.284;2023-07-28T02:32:13;7.03;;;2.30;;
4311;SDS011;2169;49.086;9.284;2023-07-28T02:34:39;3.27;;;2.10;;
4311;SDS011;2169;49.086;9.284;2023-07-28T02:37:07;3.87;;;1.53;;
4311;SDS011;2169;49.086;9.284;2023-07-28T02:39:34;17.70;;;1.97;;
4311;SDS011;2169;49.086;9.284;2023-07-28T02:42:01;1.80;;;1.70;;
4311;SDS011;2169;49.086;9.284;2023-07-28T02:44:28;2.73;;;2.30;;
4311;SDS011;2169;49.086;9.284;2023-07-28T02:46:54;3.60;;;3.13;;
4311;SDS011;2169;49.086;9.284;2023-07-28T02:49:21;4.67;;;2.67;;
4311;SDS011;2169;49.086;9.284;2023-07-28T02:51:48;2.50;;;2.30;;
4311;SDS011;2169;49.086;9.284;2023-07-28T02:54:16;3.00;;;2.67;;
4311;SDS011;2169;49.086;9.284;2023-07-28T02:56:43;2.03;;;1.80;;
4311;SDS011;2169;49.086;9.284;2023-07-28T02:59:10;2.87;;;2.67;;
4311;SDS011;2169;49.086;9.284;2023-07-28T03:01:36;7.10;;;3.07;;
4311;SDS011;2169;49.086;9.284;2023-07-28T03:04:03;3.37;;;2.83;;
4311;SDS011;2169;49.086;9.284;2023-07-28T03:06:30;2.43;;;2.20;;
4311;SDS011;2169;49.086;9.284;2023-07-28T03:08:57;3.87;;;2.50;;
4311;SDS011;2169;49.086;9.284;2023-07-28T03:11:26;4.37;;;2.37;;
4311;SDS011;2169;49.086;9.284;2023-07-28T03:13:53;1.90;;;1.80;;
4311;SDS011;2169;49.086;9.284;2023-07-28T03:16:19;3.30;;;2.80;;
4311;SDS011;2169;49.086;9.284;2023-07-28T03:18:46;4.73;;;2.90;;
4311;SDS011;2169;49.086;9.284;2023-07-28T03:21:13;5.27;;;2.83;;
4311;SDS011;2169;49.086;9.284;2023-07-28T03:23:39;15.77;;;2.87;;
4311;SDS011;2169;49.086;9.284;2023-07-28T03:26:06;2.87;;;2.70;;
4311;SDS011;2169;49.086;9.284;2023-07-28T03:28:34;2.93;;;2.63;;
4311;SDS011;2169;49.086;9.284;2023-07-28T03:31:01;2.80;;;2.20;;
4311;SDS011;2169;49.086;9.284;2023-07-28T03:33:28;3.33;;;2.20;;
4311;SDS011;2169;49.086;9.284;2023-07-28T03:35:54;1.77;;;1.67;;
4311;SDS011;2169;49.086;9.284;2023-07-28T03:38:21;3.80;;;2.60;;
4311;SDS011;2169;49.086;9.284;2023-07-28T03:40:49;4.17;;;2.90;;
4311;SDS011;2169;49.086;9.284;2023-07-28T03:43:16;3.07;;;2.30;;
4311;SDS011;2169;49.086;9.284;2023-07-28T03:45:44;2.43;;;2.33;;
4311;SDS011;2169;49.086;9.284;2023-07-28T03:48:11;11.17;;;2.97;;
4311;SDS011;2169;49.086;9.284;2023-07-28T03:50:37;2.67;;;2.43;;
4311;SDS011;2169;49.086;9.284;2023-07-28T03:53:04;2.67;;;2.47;;
4311;SDS011;2169;49.086;9.284;2023-07-28T03:55:31;5.17;;;2.70;;
4311;SDS011;2169;49.086;9.284;2023-07-28T03:57:57;5.97;;;2.00;;
4311;SDS011;2169;49.086;9.284;2023-07-28T04:00:24;2.50;;;2.30;;
4311;SDS011;2169;49.086;9.284;2023-07-28T04:02:52;3.00;;;2.67;;
4311;SDS011;2169;49.086;9.284;2023-07-28T04:05:19;2.50;;;2.30;;
4311;SDS011;2169;49.086;9.284;2023-07-28T04:07:45;3.10;;;2.90;;
4311;SDS011;2169;49.086;9.284;2023-07-28T04:10:12;3.13;;;2.80;;
4311;SDS011;2169;49.086;9.284;2023-07-28T04:12:39;4.03;;;2.80;;
4311;SDS011;2169;49.086;9.284;2023-07-28T04:15:06;3.37;;;2.80;;
4311;SDS011;2169;49.086;9.284;2023-07-28T04:17:33;2.70;;;2.50;;
4311;SDS011;2169;49.086;9.284;2023-07-28T04:20:01;4.20;;;2.23;;
4311;SDS011;2169;49.086;9.284;2023-07-28T04:22:28;2.60;;;2.40;;
4311;SDS011;2169;49.086;9.284;2023-07-28T04:24:55;2.30;;;2.13;;
4311;SDS011;2169;49.086;9.284;2023-07-28T04:27:22;3.07;;;2.87;;
4311;SDS011;2169;49.086;9.284;2023-07-28T04:29:48;3.87;;;3.47;;
4311;SDS011;2169;49.086;9.284;2023-07-28T04:32:15;2.67;;;2.47;;
4311;SDS011;2169;49.086;9.284;2023-07-28T04:34:42;2.70;;;2.50;;
4311;SDS011;2169;49.086;9.284;2023-07-28T04:37:10;6.87;;;4.13;;
4311;SDS011;2169;49.086;9.284;2023-07-28T04:39:37;3.43;;;2.53;;
4311;SDS011;2169;49.086;9.284;2023-07-28T04:42:03;3.80;;;3.37;;
4311;SDS011;2169;49.086;9.284;2023-07-28T04:44:30;4.20;;;2.37;;
4311;SDS011;2169;49.086;9.284;2023-07-28T04:46:57;6.73;;;3.00;;
4311;SDS011;2169;49.086;9.284;2023-07-28T04:49:24;2.90;;;2.67;;
4311;SDS011;2169;49.086;9.284;2023-07-28T04:51:51;6.10;;;3.40;;
4311;SDS011;2169;49.086;9.284;2023-07-28T04:54:19;7.80;;;3.47;;
4311;SDS011;2169;49.086;9.284;2023-07-28T04:56:45;4.37;;;3.20;;
4311;SDS011;2169;49.086;9.284;2023-07-28T04:59:14;6.17;;;4.40;;
4311;SDS011;2169;49.086;9.284;2023-07-28T05:01:41;4.10;;;3.57;;
4311;SDS011;2169;49.086;9.284;2023-07-28T05:04:08;4.03;;;3.17;;
4311;SDS011;2169;49.086;9.284;2023-07-28T05:06:35;3.80;;;3.50;;
4311;SDS011;2169;49.086;9.284;2023-07-28T05:09:01;7.30;;;3.77;;
4311;SDS011;2169;49.086;9.284;2023-07-28T05:11:30;6.33;;;3.90;;
4311;SDS011;2169;49.086;9.284;2023-07-28T05:13:56;6.37;;;3.57;;
4311;SDS011;2169;49.086;9.284;2023-07-28T05:16:23;2.90;;;2.67;;
4311;SDS011;2169;49.086;9.284;2023-07-28T05:18:50;4.50;;;3.33;;
4311;SDS011;2169;49.086;9.284;2023-07-28T05:21:16;3.83;;;3.47;;
4311;SDS011;2169;49.086;9.284;2023-07-28T05:23:43;4.63;;;4.20;;
4311;SDS011;2169;49.086;9.284;2023-07-28T05:26:10;2.67;;;2.50;;
4311;SDS011;2169;49.086;9.284;2023-07-28T05:28:38;12.50;;;4.27;;
4311;SDS011;2169;49.086;9.284;2023-07-28T05:31:04;9.30;;;4.63;;
4311;SDS011;2169;49.086;9.284;2023-07-28T05:33:32;4.23;;;3.60;;
4311;SDS011;2169;49.086;9.284;2023-07-28T05:35:59;6.73;;;4.40;;
4311;SDS011;2169;49.086;9.284;2023-07-28T05:38:26;4.27;;;3.93;;
4311;SDS011;2169;49.086;9.284;2023-07-28T05:40:55;3.50;;;3.20;;
4311;SDS011;2169;49.086;9.284;2023-07-28T05:43:23;7.83;;;4.70;;
4311;SDS011;2169;49.086;9.284;2023-07-28T05:45:51;7.50;;;4.10;;
4311;SDS011;2169;49.086;9.284;2023-07-28T05:48:18;3.50;;;3.07;;
4311;SDS011;2169;49.086;9.284;2023-07-28T05:50:44;5.40;;;4.70;;
4311;SDS011;2169;49.086;9.284;2023-07-28T05:53:11;5.00;;;4.17;;
4311;SDS011;2169;49.086;9.284;2023-07-28T05:55:39;6.47;;;3.00;;
4311;SDS011;2169;49.086;9.284;2023-07-28T05:58:06;2.20;;;2.07;;
4311;SDS011;2169;49.086;9.284;2023-07-28T06:00:33;3.97;;;3.20;;
4311;SDS011;2169;49.086;9.284;2023-07-28T06:03:01;3.30;;;2.80;;
4311;SDS011;2169;49.086;9.284;2023-07-28T06:05:27;3.13;;;2.83;;
4311;SDS011;2169;49.086;9.284;2023-07-28T06:07:54;4.53;;;3.30;;
4311;SDS011;2169;49.086;9.284;2023-07-28T06:10:21;4.50;;;3.27;;
4311;SDS011;2169;49.086;9.284;2023-07-28T06:12:47;3.30;;;3.03;;
4311;SDS011;2169;49.086;9.284;2023-07-28T06:15:14;8.90;;;4.10;;
4311;SDS011;2169;49.086;9.284;2023-07-28T06:17:41;5.53;;;2.83;;
4311;SDS011;2169;49.086;9.284;2023-07-28T06:20:09;3.80;;;3.37;;
4311;SDS011;2169;49.086;9.284;2023-07-28T06:22:37;7.80;;;3.30;;
4311;SDS011;2169;49.086;9.284;2023-07-28T06:25:03;4.60;;;3.23;;
4311;SDS011;2169;49.086;9.284;2023-07-28T06:27:31;5.30;;;2.73;;
4311;SDS011;2169;49.086;9.284;2023-07-28T06:29:57;4.93;;;3.90;;
4311;SDS011;2169;49.086;9.284;2023-07-28T06:32:24;2.57;;;2.33;;
4311;SDS011;2169;49.086;9.284;2023-07-28T06:34:52;4.20;;;3.80;;
4311;SDS011;2169;49.086;9.284;2023-07-28T06:37:21;2.97;;;2.70;;
4311;SDS011;2169;49.086;9.284;2023-07-28T06:39:48;2.70;;;2.50;;
4311;SDS011;2169;49.086;9.284;2023-07-28T06:42:14;3.43;;;3.13;;
4311;SDS011;2169;49.086;9.284;2023-07-28T06:44:41;2.50;;;1.93;;
4311;SDS011;2169;49.086;9.284;2023-07-28T06:47:08;2.93;;;2.17;;
4311;SDS011;2169;49.086;9.284;2023-07-28T06:49:35;5.20;;;2.67;;
4311;SDS011;2169;49.086;9.284;2023-07-28T06:52:02;4.30;;;3.30;;
4311;SDS011;2169;49.086;9.284;2023-07-28T06:54:30;2.90;;;2.03;;
4311;SDS011;2169;49.086;9.284;2023-07-28T06:56:57;4.07;;;2.63;;
4311;SDS011;2169;49.086;9.284;2023-07-28T06:59:23;2.67;;;2.47;;
4311;SDS011;2169;49.086;9.284;2023-07-28T07:01:50;6.23;;;2.87;;
4311;SDS011;2169;49.086;9.284;2023-07-28T07:04:17;3.20;;;2.53;;
4311;SDS011;2169;49.086;9.284;2023-07-28T07:06:45;2.97;;;2.73;;
4311;SDS011;2169;49.086;9.284;2023-07-28T07:09:11;3.53;;;3.23;;
4311;SDS011;2169;49.086;9.284;2023-07-28T07:11:40;3.23;;;2.20;;
4311;SDS011;2169;49.086;9.284;2023-07-28T07:14:07;3.80;;;3.50;;
4311;SDS011;2169;49.086;9.284;2023-07-28T07:16:34;9.73;;;2.90;;
4311;SDS011;2169;49.086;9.284;2023-07-28T07:19:01;6.83;;;4.43;;
4311;SDS011;2169;49.086;9.284;2023-07-28T07:21:29;3.37;;;3.17;;
4311;SDS011;2169;49.086;9.284;2023-07-28T07:23:55;2.33;;;2.13;;
4311;SDS011;2169;49.086;9.284;2023-07-28T07:26:22;4.10;;;2.87;;
4311;SDS011;2169;49.086;9.284;2023-07-28T07:28:50;2.97;;;2.77;;
4311;SDS011;2169;49.086;9.284;2023-07-28T07:31:17;1.90;;;1.80;;
4311;SDS011;2169;49.086;9.284;2023-07-28T07:33:44;2.00;;;1.90;;
4311;SDS011;2169;49.086;9.284;2023-07-28T07:36:12;1.60;;;1.50;;
4311;SDS011;2169;49.086;9.284;2023-07-28T07:38:39;2.10;;;1.87;;
4311;SDS011;2169;49.086;9.284;2023-07-28T07:41:07;5.03;;;1.47;;
4311;SDS011;2169;49.086;9.284;2023-07-28T07:43:35;1.30;;;1.30;;
4311;SDS011;2169;49.086;9.284;2023-07-28T07:46:03;1.70;;;1.43;;
4311;SDS011;2169;49.086;9.284;2023-07-28T07:48:30;1.03;;;0.93;;
4311;SDS011;2169;49.086;9.284;2023-07-28T07:50:57;1.00;;;0.90;;
4311;SDS011;2169;49.086;9.284;2023-07-28T07:53:23;3.00;;;0.93;;
4311;SDS011;2169;49.086;9.284;2023-07-28T07:55:50;0.80;;;0.80;;
4311;SDS011;2169;49.086;9.284;2023-07-28T07:58:17;8.20;;;1.13;;
4311;SDS011;2169;49.086;9.284;2023-07-28T08:00:44;1.03;;;0.80;;
4311;SDS011;2169;49.086;9.284;2023-07-28T08:03:12;0.93;;;0.93;;
4311;SDS011;2169;49.086;9.284;2023-07-28T08:05:38;9.10;;;0.77;;
4311;SDS011;2169;49.086;9.284;2023-07-28T08:08:05;0.60;;;0.60;;
4311;SDS011;2169;49.086;9.284;2023-07-28T08:10:33;0.80;;;0.80;;
4311;SDS011;2169;49.086;9.284;2023-07-28T08:13:00;0.70;;;0.70;;
4311;SDS011;2169;49.086;9.284;2023-07-28T08:15:29;1.20;;;1.10;;
4311;SDS011;2169;49.086;9.284;2023-07-28T08:17:55;0.60;;;0.60;;
4311;SDS011;2169;49.086;9.284;2023-07-28T08:20:23;0.80;;;0.80;;
4311;SDS011;2169;49.086;9.284;2023-07-28T08:22:50;2.53;;;1.37;;
4311;SDS011;2169;49.086;9.284;2023-07-28T08:25:17;1.17;;;1.03;;
4311;SDS011;2169;49.086;9.284;2023-07-28T08:27:44;0.73;;;0.73;;
4311;SDS011;2169;49.086;9.284;2023-07-28T08:30:11;1.20;;;1.00;;
4311;SDS011;2169;49.086;9.284;2023-07-28T08:32:40;2.13;;;0.83;;
4311;SDS011;2169;49.086;9.284;2023-07-28T08:35:07;1.03;;;0.97;;
4311;SDS011;2169;49.086;9.284;2023-07-28T08:37:35;2.73;;;1.33;;
4311;SDS011;2169;49.086;9.284;2023-07-28T08:40:02;0.80;;;0.80;;
4311;SDS011;2169;49.086;9.284;2023-07-28T08:42:31;1.70;;;1.20;;
4311;SDS011;2169;49.086;9.284;2023-07-28T08:45:02;1.07;;;1.07;;
4311;SDS011;2169;49.086;9.284;2023-07-28T08:47:29;1.43;;;1.33;;
4311;SDS011;2169;49.086;9.284;2023-07-28T08:49:56;0.80;;;0.80;;
4311;SDS011;2169;49.086;9.284;2023-07-28T08:52:23;1.37;;;0.80;;
4311;SDS011;2169;49.086;9.284;2023-07-28T08:54:51;0.80;;;0.80;;
4311;SDS011;2169;49.086;9.284;2023-07-28T08:57:18;0.90;;;0.90;;
4311;SDS011;2169;49.086;9.284;2023-07-28T08:59:45;1.00;;;0.90;;
4311;SDS011;2169;49.086;9.284;2023-07-28T09:02:14;1.07;;;0.80;;
4311;SDS011;2169;49.086;9.284;2023-07-28T09:04:41;1.00;;;0.93;;
4311;SDS011;2169;49.086;9.284;2023-07-28T09:07:08;0.90;;;0.90;;
4311;SDS011;2169;49.086;9.284;2023-07-28T09:09:35;1.03;;;1.00;;
4311;SDS011;2169;49.086;9.284;2023-07-28T09:12:04;1.10;;;1.10;;
4311;SDS011;2169;49.086;9.284;2023-07-28T09:14:32;1.23;;;1.13;;
4311;SDS011;2169;49.086;9.284;2023-07-28T09:17:05;1.50;;;1.50;;
4311;SDS011;2169;49.086;9.284;2023-07-28T09:19:33;1.00;;;1.00;;
4311;SDS011;2169;49.086;9.284;2023-07-28T09:22:00;1.10;;;1.10;;
4311;SDS011;2169;49.086;9.284;2023-07-28T09:24:30;1.00;;;1.00;;
4311;SDS011;2169;49.086;9.284;2023-07-28T09:26:58;2.60;;;1.13;;
4311;SDS011;2169;49.086;9.284;2023-07-28T09:29:27;1.57;;;1.10;;
4311;SDS011;2169;49.086;9.284;2023-07-28T09:31:54;11.23;;;3.03;;
4311;SDS011;2169;49.086;9.284;2023-07-28T09:34:29;2.17;;;1.30;;
4311;SDS011;2169;49.086;9.284;2023-07-28T09:36:57;1.37;;;1.13;;
4311;SDS011;2169;49.086;9.284;2023-07-28T09:39:25;1.03;;;1.03;;
4311;SDS011;2169;49.086;9.284;2023-07-28T09:41:53;2.37;;;1.73;;
4311;SDS011;2169;49.086;9.284;2023-07-28T09:44:22;0.70;;;0.70;;
4311;SDS011;2169;49.086;9.284;2023-07-28T09:46:51;0.80;;;0.80;;
4311;SDS011;2169;49.086;9.284;2023-07-28T09:49:20;1.20;;;1.10;;
4311;SDS011;2169;49.086;9.284;2023-07-28T09:51:48;0.80;;;0.80;;
4311;SDS011;2169;49.086;9.284;2023-07-28T09:54:20;2.93;;;1.00;;
4311;SDS011;2169;49.086;9.284;2023-07-28T09:56:52;0.80;;;0.80;;
4311;SDS011;2169;49.086;9.284;2023-07-28T09:59:22;0.80;;;0.80;;
4311;SDS011;2169;49.086;9.284;2023-07-28T10:01:55;0.70;;;0.70;;
4311;SDS011;2169;49.086;9.284;2023-07-28T10:04:24;0.70;;;0.70;;
4311;SDS011;2169;49.086;9.284;2023-07-28T10:06:51;0.53;;;0.53;;
4311;SDS011;2169;49.086;9.284;2023-07-28T10:09:21;1.00;;;0.80;;
4311;SDS011;2169;49.086;9.284;2023-07-28T10:11:49;3.27;;;0.80;;
4311;SDS011;2169;49.086;9.284;2023-07-28T10:14:24;1.47;;;0.80;;
4311;SDS011;2169;49.086;9.284;2023-07-28T10:16:52;0.60;;;0.60;;
4311;SDS011;2169;49.086;9.284;2023-07-28T10:19:20;0.87;;;0.87;;
4311;SDS011;2169;49.086;9.284;2023-07-28T10:21:47;1.30;;;0.90;;
4311;SDS011;2169;49.086;9.284;2023-07-28T10:24:14;0.60;;;0.60;;
4311;SDS011;2169;49.086;9.284;2023-07-28T10:26:41;0.70;;;0.70;;
4311;SDS011;2169;49.086;9.284;2023-07-28T10:29:12;0.60;;;0.60;;
4311;SDS011;2169;49.086;9.284;2023-07-28T10:31:49;0.70;;;0.70;;
4311;SDS011;2169;49.086;9.284;2023-07-28T10:34:16;0.57;;;0.57;;
4311;SDS011;2169;49.086;9.284;2023-07-28T10:36:45;1.53;;;0.80;;
4311;SDS011;2169;49.086;9.284;2023-07-28T10:39:13;0.60;;;0.60;;
4311;SDS011;2169;49.086;9.284;2023-07-28T10:41:54;1.13;;;0.77;;
4311;SDS011;2169;49.086;9.284;2023-07-28T10:44:27;0.63;;;0.63;;
4311;SDS011;2169;49.086;9.284;2023-07-28T10:46:54;1.57;;;0.97;;
4311;SDS011;2169;49.086;9.284;2023-07-28T10:49:23;0.60;;;0.60;;
4311;SDS011;2169;49.086;9.284;2023-07-28T10:51:51;0.63;;;0.63;;
4311;SDS011;2169;49.086;9.284;2023-07-28T10:54:18;4.57;;;0.83;;
4311;SDS011;2169;49.086;9.284;2023-07-28T10:56:46;0.70;;;0.60;;
4311;SDS011;2169;49.086;9.284;2023-07-28T10:59:13;0.70;;;0.70;;
4311;SDS011;2169;49.086;9.284;2023-07-28T11:01:41;0.63;;;0.63;;
4311;SDS011;2169;49.086;9.284;2023-07-28T11:04:09;0.50;;;0.50;;
4311;SDS011;2169;49.086;9.284;2023-07-28T11:06:37;1.43;;;1.33;;
4311;SDS011;2169;49.086;9.284;2023-07-28T11:09:07;0.50;;;0.50;;
4311;SDS011;2169;49.086;9.284;2023-07-28T11:11:34;1.17;;;0.70;;
4311;SDS011;2169;49.086;9.284;2023-07-28T11:14:02;1.17;;;1.07;;
4311;SDS011;2169;49.086;9.284;2023-07-28T11:16:29;1.87;;;0.90;;
4311;SDS011;2169;49.086;9.284;2023-07-28T11:18:57;0.80;;;0.70;;
4311;SDS011;2169;49.086;9.284;2023-07-28T11:21:27;0.80;;;0.60;;
4311;SDS011;2169;49.086;9.284;2023-07-28T11:23:53;2.97;;;0.70;;
4311;SDS011;2169;49.086;9.284;2023-07-28T11:26:22;0.87;;;0.67;;
4311;SDS011;2169;49.086;9.284;2023-07-28T11:28:49;1.23;;;1.23;;
4311;SDS011;2169;49.086;9.284;2023-07-28T11:31:16;0.90;;;0.60;;
4311;SDS011;2169;49.086;9.284;2023-07-28T11:33:42;0.70;;;0.60;;
4311;SDS011;2169;49.086;9.284;2023-07-28T11:36:09;0.60;;;0.60;;
4311;SDS011;2169;49.086;9.284;2023-07-28T11:38:36;0.60;;;0.60;;
4311;SDS011;2169;49.086;9.284;2023-07-28T11:41:05;0.80;;;0.70;;
4311;SDS011;2169;49.086;9.284;2023-07-28T11:43:33;0.50;;;0.50;;
4311;SDS011;2169;49.086;9.284;2023-07-28T11:46:00;0.67;;;0.60;;
4311;SDS011;2169;49.086;9.284;2023-07-28T11:48:29;0.60;;;0.60;;
4311;SDS011;2169;49.086;9.284;2023-07-28T11:50:57;0.80;;;0.67;;
4311;SDS011;2169;49.086;9.284;2023-07-28T11:53:24;0.60;;;0.50;;
4311;SDS011;2169;49.086;9.284;2023-07-28T11:55:51;1.70;;;1.17;;
4311;SDS011;2169;49.086;9.284;2023-07-28T11:58:19;0.60;;;0.60;;
4311;SDS011;2169;49.086;9.284;2023-07-28T12:00:50;1.50;;;0.70;;
4311;SDS011;2169;49.086;9.284;2023-07-28T12:03:18;1.23;;;0.60;;
4311;SDS011;2169;49.086;9.284;2023-07-28T12:05:58;0.50;;;0.50;;
4311;SDS011;2169;49.086;9.284;2023-07-28T12:08:33;2.50;;;0.80;;
4311;SDS011;2169;49.086;9.284;2023-07-28T12:11:01;1.57;;;0.70;;
4311;SDS011;2169;49.086;9.284;2023-07-28T12:13:28;1.33;;;0.70;;
4311;SDS011;2169;49.086;9.284;2023-07-28T12:15:56;0.70;;;0.70;;
4311;SDS011;2169;49.086;9.284;2023-07-28T12:18:23;0.60;;;0.60;;
4311;SDS011;2169;49.086;9.284;2023-07-28T12:20:57;0.60;;;0.60;;
4311;SDS011;2169;49.086;9.284;2023-07-28T12:23:25;0.87;;;0.87;;
4311;SDS011;2169;49.086;9.284;2023-07-28T12:25:52;0.93;;;0.90;;
4311;SDS011;2169;49.086;9.284;2023-07-28T12:28:20;0.90;;;0.90;;
4311;SDS011;2169;49.086;9.284;2023-07-28T12:30:47;0.80;;;0.80;;
4311;SDS011;2169;49.086;9.284;2023-07-28T12:33:18;0.60;;;0.60;;
4311;SDS011;2169;49.086;9.284;2023-07-28T12:35:47;6.43;;;0.70;;
4311;SDS011;2169;49.086;9.284;2023-07-28T12:38:14;0.83;;;0.83;;
4311;SDS011;2169;49.086;9.284;2023-07-28T12:40:41;1.93;;;0.63;;
4311;SDS011;2169;49.086;9.284;2023-07-28T12:43:08;1.97;;;0.60;;
4311;SDS011;2169;49.086;9.284;2023-07-28T12:45:35;1.00;;;1.00;;
4311;SDS011;2169;49.086;9.284;2023-07-28T12:48:01;1.77;;;0.90;;
4311;SDS011;2169;49.086;9.284;2023-07-28T12:50:30;1.27;;;1.17;;
4311;SDS011;2169;49.086;9.284;2023-07-28T12:52:57;0.90;;;0.80;;
4311;SDS011;2169;49.086;9.284;2023-07-28T12:55:24;0.80;;;0.80;;
4311;SDS011;2169;49.086;9.284;2023-07-28T12:57:52;0.70;;;0.70;;
4311;SDS011;2169;49.086;9.284;2023-07-28T13:00:19;3.03;;;1.30;;
4311;SDS011;2169;49.086;9.284;2023-07-28T13:02:46;3.57;;;1.27;;
4311;SDS011;2169;49.086;9.284;2023-07-28T13:05:13;2.83;;;1.10;;
4311;SDS011;2169;49.086;9.284;2023-07-28T13:07:42;1.23;;;0.70;;
4311;SDS011;2169;49.086;9.284;2023-07-28T13:10:09;6.37;;;1.40;;
4311;SDS011;2169;49.086;9.284;2023-07-28T13:12:37;6.40;;;1.73;;
4311;SDS011;2169;49.086;9.284;2023-07-28T13:15:05;13.53;;;1.53;;
4311;SDS011;2169;49.086;9.284;2023-07-28T13:17:32;1.30;;;1.00;;
4311;SDS011;2169;49.086;9.284;2023-07-28T13:19:59;2.40;;;1.10;;
4311;SDS011;2169;49.086;9.284;2023-07-28T13:22:32;1.80;;;1.47;;
4311;SDS011;2169;49.086;9.284;2023-07-28T13:25:01;10.43;;;1.90;;
4311;SDS011;2169;49.086;9.284;2023-07-28T13:27:28;2.93;;;1.00;;
4311;SDS011;2169;49.086;9.284;2023-07-28T13:29:56;1.97;;;1.40;;
4311;SDS011;2169;49.086;9.284;2023-07-28T13:32:24;7.70;;;2.27;;
4311;SDS011;2169;49.086;9.284;2023-07-28T13:34:57;1.33;;;1.23;;
4311;SDS011;2169;49.086;9.284;2023-07-28T13:37:25;2.70;;;1.40;;
4311;SDS011;2169;49.086;9.284;2023-07-28T13:39:52;1.10;;;1.10;;
4311;SDS011;2169;49.086;9.284;2023-07-28T13:42:20;2.30;;;1.90;;
4311;SDS011;2169;49.086;9.284;2023-07-28T13:44:47;1.40;;;1.30;;
4311;SDS011;2169;49.086;9.284;2023-07-28T13:47:14;5.83;;;1.63;;
4311;SDS011;2169;49.086;9.284;2023-07-28T13:49:50;9.60;;;1.70;;
4311;SDS011;2169;49.086;9.284;2023-07-28T13:52:17;2.50;;;1.00;;
4311;SDS011;2169;49.086;9.284;2023-07-28T13:54:44;2.50;;;1.40;;
4311;SDS011;2169;49.086;9.284;2023-07-28T13:57:11;2.60;;;1.60;;
4311;SDS011;2169;49.086;9.284;2023-07-28T13:59:43;4.20;;;1.27;;
4311;SDS011;2169;49.086;9.284;2023-07-28T14:02:10;1.33;;;1.10;;
4311;SDS011;2169;49.086;9.284;2023-07-28T14:04:37;1.73;;;1.63;;
4311;SDS011;2169;49.086;9.284;2023-07-28T14:07:04;1.43;;;1.20;;
4311;SDS011;2169;49.086;9.284;2023-07-28T14:09:35;4.37;;;2.80;;
4311;SDS011;2169;49.086;9.284;2023-07-28T14:12:15;1.20;;;1.20;;
4311;SDS011;2169;49.086;9.284;2023-07-28T14:14:44;3.67;;;1.23;;
4311;SDS011;2169;49.086;9.284;2023-07-28T14:17:11;1.17;;;1.10;;
4311;SDS011;2169;49.086;9.284;2023-07-28T14:19:39;1.83;;;1.67;;
4311;SDS011;2169;49.086;9.284;2023-07-28T14:22:10;1.37;;;1.27;;
4311;SDS011;2169;49.086;9.284;2023-07-28T14:24:37;2.33;;;1.97;;
4311;SDS011;2169;49.086;9.284;2023-07-28T14:27:04;1.07;;;1.03;;
4311;SDS011;2169;49.086;9.284;2023-07-28T14:29:41;3.73;;;1.63;;
4311;SDS011;2169;49.086;9.284;2023-07-28T14:32:10;1.50;;;1.40;;
4311;SDS011;2169;49.086;9.284;2023-07-28T14:34:43;6.23;;;1.77;;
4311;SDS011;2169;49.086;9.284;2023-07-28T14:37:09;1.73;;;1.27;;
4311;SDS011;2169;49.086;9.284;2023-07-28T14:39:38;3.77;;;2.03;;
4311;SDS011;2169;49.086;9.284;2023-07-28T14:42:05;1.80;;;1.70;;
4311;SDS011;2169;49.086;9.284;2023-07-28T14:44:32;1.93;;;1.73;;
4311;SDS011;2169;49.086;9.284;2023-07-28T14:47:01;3.03;;;2.17;;
4311;SDS011;2169;49.086;9.284;2023-07-28T14:49:30;1.30;;;1.20;;
4311;SDS011;2169;49.086;9.284;2023-07-28T14:51:56;1.40;;;1.30;;
4311;SDS011;2169;49.086;9.284;2023-07-28T14:54:24;1.77;;;1.67;;
4311;SDS011;2169;49.086;9.284;2023-07-28T14:56:51;1.63;;;1.50;;
4311;SDS011;2169;49.086;9.284;2023-07-28T14:59:20;1.50;;;1.07;;
4311;SDS011;2169;49.086;9.284;2023-07-28T15:01:48;2.70;;;1.53;;
4311;SDS011;2169;49.086;9.284;2023-07-28T15:04:15;2.80;;;1.60;;
4311;SDS011;2169;49.086;9.284;2023-07-28T15:06:43;1.37;;;1.10;;
4311;SDS011;2169;49.086;9.284;2023-07-28T15:09:10;2.10;;;1.90;;
4311;SDS011;2169;49.086;9.284;2023-07-28T15:11:55;2.07;;;1.57;;
4311;SDS011;2169;49.086;9.284;2023-07-28T15:14:27;2.10;;;1.30;;
4311;SDS011;2169;49.086;9.284;2023-07-28T15:16:56;2.83;;;2.43;;
4311;SDS011;2169;49.086;9.284;2023-07-28T15:19:41;6.77;;;1.87;;